sensor_id;sensor_type;location;lat;lon;timestamp;P1;durP1;ratioP1;P2;durP2;ratioP2
41293;SDS011;27037;52.010;4.446;2022-07-17T00:00:38;6.07;;;2.00;;
41293;SDS011;27037;52.010;4.446;2022-07-17T00:03:11;9.70;;;2.30;;
41293;SDS011;27037;52.010;4.446;2022-07-17T00:05:37;8.25;;;2.20;;
41293;SDS011;27037;52.010;4.446;2022-07-17T00:08:04;9.50;;;2.22;;
41293;SDS011;27037;52.010;4.446;2022-07-17T00:10:34;6.55;;;1.90;;
41293;SDS011;27037;52.010;4.446;2022-07-17T00:13:00;4.35;;;2.15;;
41293;SDS011;27037;52.010;4.446;2022-07-17T00:15:26;8.88;;;2.33;;
41293;SDS011;27037;52.010;4.446;2022-07-17T00:17:52;9.35;;;2.45;;
41293;SDS011;27037;52.010;4.446;2022-07-17T00:20:17;6.75;;;2.10;;
41293;SDS011;27037;52.010;4.446;2022-07-17T00:22:43;6.63;;;2.13;;
41293;SDS011;27037;52.010;4.446;2022-07-17T00:25:09;7.90;;;2.17;;
41293;SDS011;27037;52.010;4.446;2022-07-17T00:27:35;10.13;;;2.40;;
41293;SDS011;27037;52.010;4.446;2022-07-17T00:30:02;8.55;;;2.58;;
41293;SDS011;27037;52.010;4.446;2022-07-17T00:32:29;6.80;;;2.28;;
41293;SDS011;27037;52.010;4.446;2022-07-17T00:34:54;7.25;;;2.40;;
41293;SDS011;27037;52.010;4.446;2022-07-17T00:37:21;10.32;;;2.80;;
41293;SDS011;27037;52.010;4.446;2022-07-17T00:39:46;6.57;;;2.15;;
41293;SDS011;27037;52.010;4.446;2022-07-17T00:42:12;7.47;;;2.25;;
41293;SDS011;27037;52.010;4.446;2022-07-17T00:44:40;7.43;;;2.33;;
41293;SDS011;27037;52.010;4.446;2022-07-17T00:47:24;7.15;;;2.17;;
41293;SDS011;27037;52.010;4.446;2022-07-17T00:49:50;4.70;;;2.30;;
41293;SDS011;27037;52.010;4.446;2022-07-17T00:52:16;6.63;;;2.25;;
41293;SDS011;27037;52.010;4.446;2022-07-17T00:54:42;8.45;;;2.58;;
41293;SDS011;27037;52.010;4.446;2022-07-17T00:57:10;5.20;;;2.20;;
41293;SDS011;27037;52.010;4.446;2022-07-17T00:59:38;7.10;;;2.30;;
41293;SDS011;27037;52.010;4.446;2022-07-17T01:02:05;8.20;;;2.53;;
41293;SDS011;27037;52.010;4.446;2022-07-17T01:04:35;8.73;;;2.75;;
41293;SDS011;27037;52.010;4.446;2022-07-17T01:07:02;7.88;;;2.70;;
41293;SDS011;27037;52.010;4.446;2022-07-17T01:09:29;7.07;;;2.80;;
41293;SDS011;27037;52.010;4.446;2022-07-17T01:11:55;7.53;;;2.70;;
41293;SDS011;27037;52.010;4.446;2022-07-17T01:14:22;5.15;;;2.28;;
41293;SDS011;27037;52.010;4.446;2022-07-17T01:16:49;6.25;;;2.58;;
41293;SDS011;27037;52.010;4.446;2022-07-17T01:19:15;7.47;;;2.65;;
41293;SDS011;27037;52.010;4.446;2022-07-17T01:21:42;7.85;;;2.60;;
41293;SDS011;27037;52.010;4.446;2022-07-17T01:24:09;5.80;;;2.40;;
41293;SDS011;27037;52.010;4.446;2022-07-17T01:26:35;8.65;;;2.60;;
41293;SDS011;27037;52.010;4.446;2022-07-17T01:29:01;7.72;;;2.33;;
41293;SDS011;27037;52.010;4.446;2022-07-17T01:31:27;8.70;;;3.03;;
41293;SDS011;27037;52.010;4.446;2022-07-17T01:33:53;9.20;;;2.28;;
41293;SDS011;27037;52.010;4.446;2022-07-17T01:36:22;11.07;;;2.60;;
41293;SDS011;27037;52.010;4.446;2022-07-17T01:38:48;7.85;;;2.95;;
41293;SDS011;27037;52.010;4.446;2022-07-17T01:41:14;8.38;;;2.80;;
41293;SDS011;27037;52.010;4.446;2022-07-17T01:43:40;9.13;;;2.80;;
41293;SDS011;27037;52.010;4.446;2022-07-17T01:46:06;5.32;;;2.28;;
41293;SDS011;27037;52.010;4.446;2022-07-17T01:48:32;9.30;;;2.70;;
41293;SDS011;27037;52.010;4.446;2022-07-17T01:50:57;9.85;;;2.92;;
41293;SDS011;27037;52.010;4.446;2022-07-17T01:53:23;9.48;;;2.85;;
41293;SDS011;27037;52.010;4.446;2022-07-17T01:55:48;6.60;;;2.70;;
41293;SDS011;27037;52.010;4.446;2022-07-17T01:58:14;9.32;;;2.80;;
41293;SDS011;27037;52.010;4.446;2022-07-17T02:00:40;9.90;;;2.70;;
41293;SDS011;27037;52.010;4.446;2022-07-17T02:03:06;5.20;;;2.58;;
41293;SDS011;27037;52.010;4.446;2022-07-17T02:05:31;8.80;;;3.42;;
41293;SDS011;27037;52.010;4.446;2022-07-17T02:07:57;6.13;;;2.95;;
41293;SDS011;27037;52.010;4.446;2022-07-17T02:10:23;7.43;;;3.40;;
41293;SDS011;27037;52.010;4.446;2022-07-17T02:12:48;10.00;;;3.40;;
41293;SDS011;27037;52.010;4.446;2022-07-17T02:15:14;7.30;;;3.28;;
41293;SDS011;27037;52.010;4.446;2022-07-17T02:17:40;5.95;;;3.00;;
41293;SDS011;27037;52.010;4.446;2022-07-17T02:20:06;8.93;;;3.50;;
41293;SDS011;27037;52.010;4.446;2022-07-17T02:22:33;7.82;;;3.05;;
41293;SDS011;27037;52.010;4.446;2022-07-17T02:25:00;10.32;;;3.65;;
41293;SDS011;27037;52.010;4.446;2022-07-17T02:27:25;10.02;;;3.55;;
41293;SDS011;27037;52.010;4.446;2022-07-17T02:29:51;9.48;;;3.72;;
41293;SDS011;27037;52.010;4.446;2022-07-17T02:32:16;9.73;;;3.63;;
41293;SDS011;27037;52.010;4.446;2022-07-17T02:34:42;7.95;;;3.65;;
41293;SDS011;27037;52.010;4.446;2022-07-17T02:37:08;9.18;;;3.10;;
41293;SDS011;27037;52.010;4.446;2022-07-17T02:39:33;8.25;;;3.20;;
41293;SDS011;27037;52.010;4.446;2022-07-17T02:41:59;10.25;;;3.50;;
41293;SDS011;27037;52.010;4.446;2022-07-17T02:44:24;7.53;;;3.30;;
41293;SDS011;27037;52.010;4.446;2022-07-17T02:46:50;8.77;;;3.80;;
41293;SDS011;27037;52.010;4.446;2022-07-17T02:49:16;9.95;;;3.33;;
41293;SDS011;27037;52.010;4.446;2022-07-17T02:51:41;11.27;;;4.30;;
41293;SDS011;27037;52.010;4.446;2022-07-17T02:54:07;6.43;;;3.40;;
41293;SDS011;27037;52.010;4.446;2022-07-17T02:56:32;5.30;;;3.50;;
41293;SDS011;27037;52.010;4.446;2022-07-17T02:58:58;13.48;;;3.92;;
41293;SDS011;27037;52.010;4.446;2022-07-17T03:01:23;9.45;;;3.65;;
41293;SDS011;27037;52.010;4.446;2022-07-17T03:03:49;11.55;;;3.70;;
41293;SDS011;27037;52.010;4.446;2022-07-17T03:06:14;10.43;;;3.90;;
41293;SDS011;27037;52.010;4.446;2022-07-17T03:08:40;7.97;;;3.38;;
41293;SDS011;27037;52.010;4.446;2022-07-17T03:11:06;11.85;;;4.18;;
41293;SDS011;27037;52.010;4.446;2022-07-17T03:13:31;11.20;;;3.35;;
41293;SDS011;27037;52.010;4.446;2022-07-17T03:15:57;8.35;;;3.22;;
41293;SDS011;27037;52.010;4.446;2022-07-17T03:18:22;6.78;;;3.35;;
41293;SDS011;27037;52.010;4.446;2022-07-17T03:20:48;6.90;;;3.53;;
41293;SDS011;27037;52.010;4.446;2022-07-17T03:23:14;9.02;;;3.50;;
41293;SDS011;27037;52.010;4.446;2022-07-17T03:25:39;9.18;;;3.45;;
41293;SDS011;27037;52.010;4.446;2022-07-17T03:28:05;10.73;;;3.30;;
41293;SDS011;27037;52.010;4.446;2022-07-17T03:30:30;8.43;;;3.70;;
41293;SDS011;27037;52.010;4.446;2022-07-17T03:32:56;6.60;;;3.70;;
41293;SDS011;27037;52.010;4.446;2022-07-17T03:35:22;8.20;;;3.60;;
41293;SDS011;27037;52.010;4.446;2022-07-17T03:37:47;7.15;;;3.25;;
41293;SDS011;27037;52.010;4.446;2022-07-17T03:40:13;10.23;;;3.65;;
41293;SDS011;27037;52.010;4.446;2022-07-17T03:42:39;9.02;;;4.15;;
41293;SDS011;27037;52.010;4.446;2022-07-17T03:45:04;9.55;;;3.75;;
41293;SDS011;27037;52.010;4.446;2022-07-17T03:47:31;8.38;;;3.60;;
41293;SDS011;27037;52.010;4.446;2022-07-17T03:49:57;8.85;;;3.80;;
41293;SDS011;27037;52.010;4.446;2022-07-17T03:52:22;11.57;;;4.18;;
41293;SDS011;27037;52.010;4.446;2022-07-17T03:54:48;8.05;;;4.30;;
41293;SDS011;27037;52.010;4.446;2022-07-17T03:57:13;9.90;;;4.00;;
41293;SDS011;27037;52.010;4.446;2022-07-17T03:59:39;7.93;;;3.75;;
41293;SDS011;27037;52.010;4.446;2022-07-17T04:02:05;9.40;;;4.20;;
41293;SDS011;27037;52.010;4.446;2022-07-17T04:04:30;10.75;;;4.65;;
41293;SDS011;27037;52.010;4.446;2022-07-17T04:06:56;12.73;;;4.55;;
41293;SDS011;27037;52.010;4.446;2022-07-17T04:09:21;10.80;;;3.90;;
41293;SDS011;27037;52.010;4.446;2022-07-17T04:11:47;10.32;;;4.07;;
41293;SDS011;27037;52.010;4.446;2022-07-17T04:14:12;11.73;;;4.47;;
41293;SDS011;27037;52.010;4.446;2022-07-17T04:16:38;6.18;;;3.75;;
41293;SDS011;27037;52.010;4.446;2022-07-17T04:19:04;9.18;;;3.92;;
41293;SDS011;27037;52.010;4.446;2022-07-17T04:21:29;10.50;;;4.25;;
41293;SDS011;27037;52.010;4.446;2022-07-17T04:23:55;10.65;;;4.07;;
41293;SDS011;27037;52.010;4.446;2022-07-17T04:26:20;9.13;;;4.53;;
41293;SDS011;27037;52.010;4.446;2022-07-17T04:28:46;8.40;;;4.13;;
41293;SDS011;27037;52.010;4.446;2022-07-17T04:31:12;8.13;;;4.47;;
41293;SDS011;27037;52.010;4.446;2022-07-17T04:33:37;9.25;;;3.90;;
41293;SDS011;27037;52.010;4.446;2022-07-17T04:36:03;14.10;;;4.20;;
41293;SDS011;27037;52.010;4.446;2022-07-17T04:38:29;8.85;;;4.07;;
41293;SDS011;27037;52.010;4.446;2022-07-17T04:40:55;7.93;;;3.65;;
41293;SDS011;27037;52.010;4.446;2022-07-17T04:43:22;7.90;;;4.15;;
41293;SDS011;27037;52.010;4.446;2022-07-17T04:45:47;8.43;;;3.83;;
41293;SDS011;27037;52.010;4.446;2022-07-17T04:48:13;7.90;;;3.75;;
41293;SDS011;27037;52.010;4.446;2022-07-17T04:50:38;9.02;;;3.53;;
41293;SDS011;27037;52.010;4.446;2022-07-17T04:53:04;9.00;;;3.35;;
41293;SDS011;27037;52.010;4.446;2022-07-17T04:55:29;10.40;;;3.67;;
41293;SDS011;27037;52.010;4.446;2022-07-17T04:57:55;8.38;;;3.40;;
41293;SDS011;27037;52.010;4.446;2022-07-17T05:00:21;9.65;;;3.50;;
41293;SDS011;27037;52.010;4.446;2022-07-17T05:02:46;9.57;;;3.38;;
41293;SDS011;27037;52.010;4.446;2022-07-17T05:05:12;7.90;;;3.65;;
41293;SDS011;27037;52.010;4.446;2022-07-17T05:07:38;9.45;;;3.03;;
41293;SDS011;27037;52.010;4.446;2022-07-17T05:10:04;8.50;;;3.08;;
41293;SDS011;27037;52.010;4.446;2022-07-17T05:12:31;7.85;;;2.67;;
41293;SDS011;27037;52.010;4.446;2022-07-17T05:14:56;9.55;;;3.20;;
41293;SDS011;27037;52.010;4.446;2022-07-17T05:17:23;5.45;;;2.83;;
41293;SDS011;27037;52.010;4.446;2022-07-17T05:19:49;9.20;;;3.00;;
41293;SDS011;27037;52.010;4.446;2022-07-17T05:22:14;5.88;;;2.70;;
41293;SDS011;27037;52.010;4.446;2022-07-17T05:24:40;9.88;;;2.80;;
41293;SDS011;27037;52.010;4.446;2022-07-17T05:27:05;7.53;;;2.53;;
41293;SDS011;27037;52.010;4.446;2022-07-17T05:29:31;6.05;;;2.33;;
41293;SDS011;27037;52.010;4.446;2022-07-17T05:31:57;4.72;;;2.30;;
41293;SDS011;27037;52.010;4.446;2022-07-17T05:34:22;6.88;;;2.28;;
41293;SDS011;27037;52.010;4.446;2022-07-17T05:36:48;5.22;;;2.05;;
41293;SDS011;27037;52.010;4.446;2022-07-17T05:39:14;6.93;;;2.25;;
41293;SDS011;27037;52.010;4.446;2022-07-17T05:41:39;8.20;;;2.63;;
41293;SDS011;27037;52.010;4.446;2022-07-17T05:44:05;7.53;;;2.03;;
41293;SDS011;27037;52.010;4.446;2022-07-17T05:46:31;6.85;;;1.77;;
41293;SDS011;27037;52.010;4.446;2022-07-17T05:48:56;10.32;;;2.20;;
41293;SDS011;27037;52.010;4.446;2022-07-17T05:51:22;8.18;;;2.05;;
41293;SDS011;27037;52.010;4.446;2022-07-17T05:53:47;8.85;;;1.95;;
41293;SDS011;27037;52.010;4.446;2022-07-17T05:56:13;8.13;;;2.20;;
41293;SDS011;27037;52.010;4.446;2022-07-17T05:58:38;6.60;;;1.85;;
41293;SDS011;27037;52.010;4.446;2022-07-17T06:01:04;6.82;;;1.73;;
41293;SDS011;27037;52.010;4.446;2022-07-17T06:03:29;5.63;;;1.63;;
41293;SDS011;27037;52.010;4.446;2022-07-17T06:05:55;3.92;;;1.50;;
41293;SDS011;27037;52.010;4.446;2022-07-17T06:08:21;6.07;;;1.52;;
41293;SDS011;27037;52.010;4.446;2022-07-17T06:10:47;6.55;;;1.58;;
41293;SDS011;27037;52.010;4.446;2022-07-17T06:13:12;7.72;;;1.63;;
41293;SDS011;27037;52.010;4.446;2022-07-17T06:15:38;5.70;;;1.38;;
41293;SDS011;27037;52.010;4.446;2022-07-17T06:18:04;4.93;;;1.70;;
41293;SDS011;27037;52.010;4.446;2022-07-17T06:20:35;7.55;;;1.70;;
41293;SDS011;27037;52.010;4.446;2022-07-17T06:23:01;10.02;;;1.90;;
41293;SDS011;27037;52.010;4.446;2022-07-17T06:25:26;5.38;;;1.70;;
41293;SDS011;27037;52.010;4.446;2022-07-17T06:27:52;6.03;;;1.60;;
41293;SDS011;27037;52.010;4.446;2022-07-17T06:30:17;5.90;;;1.48;;
41293;SDS011;27037;52.010;4.446;2022-07-17T06:32:43;4.63;;;1.38;;
41293;SDS011;27037;52.010;4.446;2022-07-17T06:35:09;4.93;;;1.27;;
41293;SDS011;27037;52.010;4.446;2022-07-17T06:37:35;4.68;;;1.30;;
41293;SDS011;27037;52.010;4.446;2022-07-17T06:40:02;5.47;;;1.38;;
41293;SDS011;27037;52.010;4.446;2022-07-17T06:42:29;5.40;;;1.27;;
41293;SDS011;27037;52.010;4.446;2022-07-17T06:44:55;8.07;;;1.48;;
41293;SDS011;27037;52.010;4.446;2022-07-17T06:47:20;7.78;;;1.60;;
41293;SDS011;27037;52.010;4.446;2022-07-17T06:49:46;6.13;;;1.73;;
41293;SDS011;27037;52.010;4.446;2022-07-17T06:52:11;6.50;;;1.35;;
41293;SDS011;27037;52.010;4.446;2022-07-17T06:54:37;7.32;;;1.67;;
41293;SDS011;27037;52.010;4.446;2022-07-17T06:57:02;12.80;;;1.98;;
41293;SDS011;27037;52.010;4.446;2022-07-17T06:59:28;5.75;;;1.25;;
41293;SDS011;27037;52.010;4.446;2022-07-17T07:01:54;8.60;;;1.55;;
41293;SDS011;27037;52.010;4.446;2022-07-17T07:04:19;7.72;;;1.50;;
41293;SDS011;27037;52.010;4.446;2022-07-17T07:06:45;5.25;;;1.63;;
41293;SDS011;27037;52.010;4.446;2022-07-17T07:09:10;5.78;;;1.58;;
41293;SDS011;27037;52.010;4.446;2022-07-17T07:11:36;9.18;;;1.60;;
41293;SDS011;27037;52.010;4.446;2022-07-17T07:14:03;6.68;;;1.42;;
41293;SDS011;27037;52.010;4.446;2022-07-17T07:16:28;8.88;;;1.55;;
41293;SDS011;27037;52.010;4.446;2022-07-17T07:18:54;7.85;;;1.52;;
41293;SDS011;27037;52.010;4.446;2022-07-17T07:21:19;9.77;;;1.15;;
41293;SDS011;27037;52.010;4.446;2022-07-17T07:23:45;5.65;;;1.30;;
41293;SDS011;27037;52.010;4.446;2022-07-17T07:26:11;3.47;;;1.33;;
41293;SDS011;27037;52.010;4.446;2022-07-17T07:28:36;5.25;;;1.30;;
41293;SDS011;27037;52.010;4.446;2022-07-17T07:31:03;7.47;;;1.25;;
41293;SDS011;27037;52.010;4.446;2022-07-17T07:33:28;4.60;;;1.20;;
41293;SDS011;27037;52.010;4.446;2022-07-17T07:35:54;6.03;;;1.23;;
41293;SDS011;27037;52.010;4.446;2022-07-17T07:38:20;7.05;;;1.38;;
41293;SDS011;27037;52.010;4.446;2022-07-17T07:40:45;5.97;;;1.42;;
41293;SDS011;27037;52.010;4.446;2022-07-17T07:43:11;6.65;;;1.17;;
41293;SDS011;27037;52.010;4.446;2022-07-17T07:45:36;5.53;;;1.02;;
41293;SDS011;27037;52.010;4.446;2022-07-17T07:48:02;5.68;;;1.40;;
41293;SDS011;27037;52.010;4.446;2022-07-17T07:50:28;8.02;;;1.45;;
41293;SDS011;27037;52.010;4.446;2022-07-17T07:52:54;5.15;;;1.20;;
41293;SDS011;27037;52.010;4.446;2022-07-17T07:55:19;9.68;;;1.20;;
41293;SDS011;27037;52.010;4.446;2022-07-17T07:57:46;4.50;;;1.50;;
41293;SDS011;27037;52.010;4.446;2022-07-17T08:00:12;5.88;;;1.80;;
41293;SDS011;27037;52.010;4.446;2022-07-17T08:02:38;7.07;;;1.27;;
41293;SDS011;27037;52.010;4.446;2022-07-17T08:05:04;6.35;;;1.30;;
41293;SDS011;27037;52.010;4.446;2022-07-17T08:07:30;5.10;;;1.50;;
41293;SDS011;27037;52.010;4.446;2022-07-17T08:09:56;5.50;;;1.45;;
41293;SDS011;27037;52.010;4.446;2022-07-17T08:12:22;3.92;;;1.10;;
41293;SDS011;27037;52.010;4.446;2022-07-17T08:14:49;5.05;;;1.30;;
41293;SDS011;27037;52.010;4.446;2022-07-17T08:17:15;4.57;;;1.23;;
41293;SDS011;27037;52.010;4.446;2022-07-17T08:19:40;6.90;;;1.58;;
41293;SDS011;27037;52.010;4.446;2022-07-17T08:22:06;3.83;;;1.20;;
41293;SDS011;27037;52.010;4.446;2022-07-17T08:24:31;5.97;;;1.30;;
41293;SDS011;27037;52.010;4.446;2022-07-17T08:26:57;6.22;;;1.30;;
41293;SDS011;27037;52.010;4.446;2022-07-17T08:29:23;4.40;;;1.42;;
41293;SDS011;27037;52.010;4.446;2022-07-17T08:31:48;7.28;;;1.35;;
41293;SDS011;27037;52.010;4.446;2022-07-17T08:34:14;4.43;;;1.25;;
41293;SDS011;27037;52.010;4.446;2022-07-17T08:36:40;3.30;;;1.20;;
41293;SDS011;27037;52.010;4.446;2022-07-17T08:39:07;5.72;;;1.40;;
41293;SDS011;27037;52.010;4.446;2022-07-17T08:41:36;4.32;;;1.38;;
41293;SDS011;27037;52.010;4.446;2022-07-17T08:44:04;3.30;;;1.40;;
41293;SDS011;27037;52.010;4.446;2022-07-17T08:46:30;5.10;;;1.20;;
41293;SDS011;27037;52.010;4.446;2022-07-17T08:49:02;4.50;;;1.20;;
41293;SDS011;27037;52.010;4.446;2022-07-17T08:51:29;3.80;;;1.40;;
41293;SDS011;27037;52.010;4.446;2022-07-17T08:53:55;5.38;;;1.30;;
41293;SDS011;27037;52.010;4.446;2022-07-17T08:56:21;4.30;;;1.40;;
41293;SDS011;27037;52.010;4.446;2022-07-17T08:58:47;4.72;;;1.40;;
41293;SDS011;27037;52.010;4.446;2022-07-17T09:01:13;4.75;;;1.30;;
41293;SDS011;27037;52.010;4.446;2022-07-17T09:03:40;4.45;;;1.38;;
41293;SDS011;27037;52.010;4.446;2022-07-17T09:06:20;5.63;;;1.50;;
41293;SDS011;27037;52.010;4.446;2022-07-17T09:08:46;3.78;;;1.38;;
41293;SDS011;27037;52.010;4.446;2022-07-17T09:11:12;2.85;;;1.35;;
41293;SDS011;27037;52.010;4.446;2022-07-17T09:13:41;3.83;;;1.25;;
41293;SDS011;27037;52.010;4.446;2022-07-17T09:16:10;3.17;;;1.23;;
41293;SDS011;27037;52.010;4.446;2022-07-17T09:18:47;3.67;;;1.30;;
41293;SDS011;27037;52.010;4.446;2022-07-17T09:21:21;3.40;;;1.58;;
41293;SDS011;27037;52.010;4.446;2022-07-17T09:26:27;2.92;;;1.45;;
41293;SDS011;27037;52.010;4.446;2022-07-17T09:28:54;3.50;;;1.25;;
41293;SDS011;27037;52.010;4.446;2022-07-17T09:31:30;5.50;;;1.50;;
41293;SDS011;27037;52.010;4.446;2022-07-17T09:33:57;2.72;;;1.38;;
41293;SDS011;27037;52.010;4.446;2022-07-17T09:36:23;4.40;;;1.77;;
41293;SDS011;27037;52.010;4.446;2022-07-17T09:38:52;3.05;;;1.55;;
41293;SDS011;27037;52.010;4.446;2022-07-17T09:41:19;2.08;;;1.30;;
41293;SDS011;27037;52.010;4.446;2022-07-17T09:43:50;2.17;;;1.35;;
41293;SDS011;27037;52.010;4.446;2022-07-17T09:46:21;2.90;;;1.65;;
41293;SDS011;27037;52.010;4.446;2022-07-17T09:48:49;4.50;;;1.65;;
41293;SDS011;27037;52.010;4.446;2022-07-17T09:51:20;4.50;;;1.30;;
41293;SDS011;27037;52.010;4.446;2022-07-17T09:53:52;4.93;;;1.42;;
41293;SDS011;27037;52.010;4.446;2022-07-17T09:56:19;2.97;;;1.30;;
41293;SDS011;27037;52.010;4.446;2022-07-17T09:58:53;2.15;;;1.30;;
41293;SDS011;27037;52.010;4.446;2022-07-17T10:01:24;4.57;;;1.33;;
41293;SDS011;27037;52.010;4.446;2022-07-17T10:03:50;5.22;;;1.30;;
41293;SDS011;27037;52.010;4.446;2022-07-17T10:06:18;2.53;;;1.00;;
41293;SDS011;27037;52.010;4.446;2022-07-17T10:08:48;3.90;;;1.27;;
41293;SDS011;27037;52.010;4.446;2022-07-17T10:11:13;3.30;;;1.13;;
41293;SDS011;27037;52.010;4.446;2022-07-17T10:13:42;3.33;;;1.30;;
41293;SDS011;27037;52.010;4.446;2022-07-17T10:16:10;4.20;;;1.48;;
41293;SDS011;27037;52.010;4.446;2022-07-17T10:18:40;5.20;;;1.40;;
41293;SDS011;27037;52.010;4.446;2022-07-17T10:23:39;2.53;;;1.30;;
41293;SDS011;27037;52.010;4.446;2022-07-17T10:26:06;2.92;;;1.20;;
41293;SDS011;27037;52.010;4.446;2022-07-17T10:29:06;2.65;;;1.60;;
41293;SDS011;27037;52.010;4.446;2022-07-17T10:31:24;4.28;;;1.20;;
41293;SDS011;27037;52.010;4.446;2022-07-17T10:33:57;5.00;;;1.10;;
41293;SDS011;27037;52.010;4.446;2022-07-17T10:36:42;3.67;;;1.55;;
41293;SDS011;27037;52.010;4.446;2022-07-17T10:39:18;7.32;;;1.60;;
41293;SDS011;27037;52.010;4.446;2022-07-17T10:41:57;2.58;;;1.50;;
41293;SDS011;27037;52.010;4.446;2022-07-17T10:44:25;3.67;;;1.40;;
41293;SDS011;27037;52.010;4.446;2022-07-17T10:46:52;3.70;;;1.58;;
41293;SDS011;27037;52.010;4.446;2022-07-17T10:49:18;4.20;;;1.60;;
41293;SDS011;27037;52.010;4.446;2022-07-17T10:51:44;5.47;;;1.77;;
41293;SDS011;27037;52.010;4.446;2022-07-17T10:54:13;2.78;;;1.50;;
41293;SDS011;27037;52.010;4.446;2022-07-17T10:56:39;3.42;;;1.55;;
41293;SDS011;27037;52.010;4.446;2022-07-17T10:59:05;3.00;;;1.60;;
41293;SDS011;27037;52.010;4.446;2022-07-17T11:01:31;3.13;;;1.60;;
41293;SDS011;27037;52.010;4.446;2022-07-17T11:03:58;2.88;;;1.67;;
41293;SDS011;27037;52.010;4.446;2022-07-17T11:06:26;4.43;;;1.75;;
41293;SDS011;27037;52.010;4.446;2022-07-17T11:08:56;4.88;;;2.00;;
41293;SDS011;27037;52.010;4.446;2022-07-17T11:14:23;6.35;;;2.20;;
41293;SDS011;27037;52.010;4.446;2022-07-17T11:16:51;5.38;;;2.15;;
41293;SDS011;27037;52.010;4.446;2022-07-17T11:21:56;6.03;;;2.10;;
41293;SDS011;27037;52.010;4.446;2022-07-17T11:24:22;5.05;;;2.03;;
41293;SDS011;27037;52.010;4.446;2022-07-17T11:26:51;3.40;;;2.05;;
41293;SDS011;27037;52.010;4.446;2022-07-17T11:29:17;4.10;;;1.70;;
41293;SDS011;27037;52.010;4.446;2022-07-17T11:31:43;4.45;;;2.00;;
41293;SDS011;27037;52.010;4.446;2022-07-17T11:34:09;4.47;;;2.13;;
41293;SDS011;27037;52.010;4.446;2022-07-17T11:36:41;4.03;;;2.08;;
41293;SDS011;27037;52.010;4.446;2022-07-17T11:41:42;5.63;;;2.30;;
41293;SDS011;27037;52.010;4.446;2022-07-17T11:44:21;4.57;;;2.10;;
41293;SDS011;27037;52.010;4.446;2022-07-17T11:46:50;5.57;;;3.00;;
41293;SDS011;27037;52.010;4.446;2022-07-17T11:52:05;4.25;;;2.80;;
41293;SDS011;27037;52.010;4.446;2022-07-17T11:54:49;4.53;;;2.67;;
41293;SDS011;27037;52.010;4.446;2022-07-17T11:57:16;6.40;;;2.70;;
41293;SDS011;27037;52.010;4.446;2022-07-17T11:59:43;4.47;;;2.40;;
41293;SDS011;27037;52.010;4.446;2022-07-17T12:02:16;9.68;;;5.00;;
41293;SDS011;27037;52.010;4.446;2022-07-17T12:07:38;7.68;;;3.50;;
41293;SDS011;27037;52.010;4.446;2022-07-17T12:10:16;5.85;;;2.63;;
41293;SDS011;27037;52.010;4.446;2022-07-17T12:12:57;5.03;;;3.00;;
41293;SDS011;27037;52.010;4.446;2022-07-17T12:15:39;5.65;;;3.10;;
41293;SDS011;27037;52.010;4.446;2022-07-17T12:18:06;5.43;;;2.42;;
41293;SDS011;27037;52.010;4.446;2022-07-17T12:20:44;3.67;;;2.35;;
41293;SDS011;27037;52.010;4.446;2022-07-17T12:23:31;5.18;;;2.85;;
41293;SDS011;27037;52.010;4.446;2022-07-17T12:28:40;5.25;;;2.60;;
41293;SDS011;27037;52.010;4.446;2022-07-17T12:31:09;4.60;;;2.65;;
41293;SDS011;27037;52.010;4.446;2022-07-17T12:33:39;6.03;;;3.10;;
41293;SDS011;27037;52.010;4.446;2022-07-17T12:36:04;6.93;;;2.80;;
41293;SDS011;27037;52.010;4.446;2022-07-17T12:38:31;4.85;;;2.60;;
41293;SDS011;27037;52.010;4.446;2022-07-17T12:40:56;6.50;;;2.80;;
41293;SDS011;27037;52.010;4.446;2022-07-17T12:43:23;7.18;;;3.38;;
41293;SDS011;27037;52.010;4.446;2022-07-17T12:45:49;5.88;;;2.92;;
41293;SDS011;27037;52.010;4.446;2022-07-17T12:48:21;4.57;;;2.72;;
41293;SDS011;27037;52.010;4.446;2022-07-17T12:50:47;4.03;;;2.97;;
41293;SDS011;27037;52.010;4.446;2022-07-17T12:53:13;5.43;;;3.22;;
41293;SDS011;27037;52.010;4.446;2022-07-17T12:55:38;6.38;;;2.90;;
41293;SDS011;27037;52.010;4.446;2022-07-17T12:58:04;5.30;;;3.17;;
41293;SDS011;27037;52.010;4.446;2022-07-17T13:00:30;4.40;;;3.00;;
41293;SDS011;27037;52.010;4.446;2022-07-17T13:02:56;7.20;;;3.35;;
41293;SDS011;27037;52.010;4.446;2022-07-17T13:05:22;6.30;;;3.45;;
41293;SDS011;27037;52.010;4.446;2022-07-17T13:07:48;7.68;;;3.55;;
41293;SDS011;27037;52.010;4.446;2022-07-17T13:10:14;6.43;;;3.67;;
41293;SDS011;27037;52.010;4.446;2022-07-17T13:12:40;5.70;;;3.30;;
41293;SDS011;27037;52.010;4.446;2022-07-17T13:15:06;5.00;;;3.40;;
41293;SDS011;27037;52.010;4.446;2022-07-17T13:17:33;6.53;;;3.33;;
41293;SDS011;27037;52.010;4.446;2022-07-17T13:19:58;5.03;;;3.55;;
41293;SDS011;27037;52.010;4.446;2022-07-17T13:22:24;5.47;;;3.40;;
41293;SDS011;27037;52.010;4.446;2022-07-17T13:24:49;5.88;;;3.50;;
41293;SDS011;27037;52.010;4.446;2022-07-17T13:27:15;7.05;;;3.95;;
41293;SDS011;27037;52.010;4.446;2022-07-17T13:29:41;6.95;;;4.40;;
41293;SDS011;27037;52.010;4.446;2022-07-17T13:32:06;7.43;;;4.20;;
41293;SDS011;27037;52.010;4.446;2022-07-17T13:34:32;5.70;;;3.80;;
41293;SDS011;27037;52.010;4.446;2022-07-17T13:36:57;6.32;;;3.55;;
41293;SDS011;27037;52.010;4.446;2022-07-17T13:39:23;7.15;;;3.97;;
41293;SDS011;27037;52.010;4.446;2022-07-17T13:41:49;5.80;;;3.80;;
41293;SDS011;27037;52.010;4.446;2022-07-17T13:44:15;5.88;;;3.60;;
41293;SDS011;27037;52.010;4.446;2022-07-17T13:46:41;8.02;;;3.97;;
41293;SDS011;27037;52.010;4.446;2022-07-17T13:49:06;6.57;;;3.90;;
41293;SDS011;27037;52.010;4.446;2022-07-17T13:51:32;7.53;;;3.88;;
41293;SDS011;27037;52.010;4.446;2022-07-17T13:53:59;5.68;;;3.88;;
41293;SDS011;27037;52.010;4.446;2022-07-17T13:56:24;5.57;;;4.07;;
41293;SDS011;27037;52.010;4.446;2022-07-17T13:58:50;6.68;;;4.18;;
41293;SDS011;27037;52.010;4.446;2022-07-17T14:01:16;6.03;;;4.05;;
41293;SDS011;27037;52.010;4.446;2022-07-17T14:03:42;5.75;;;3.70;;
41293;SDS011;27037;52.010;4.446;2022-07-17T14:06:08;6.95;;;3.63;;
41293;SDS011;27037;52.010;4.446;2022-07-17T14:08:34;6.55;;;3.92;;
41293;SDS011;27037;52.010;4.446;2022-07-17T14:11:00;4.55;;;3.30;;
41293;SDS011;27037;52.010;4.446;2022-07-17T14:13:27;5.07;;;3.75;;
41293;SDS011;27037;52.010;4.446;2022-07-17T14:15:53;6.90;;;4.00;;
41293;SDS011;27037;52.010;4.446;2022-07-17T14:18:19;8.70;;;4.30;;
41293;SDS011;27037;52.010;4.446;2022-07-17T14:20:44;7.50;;;4.80;;
41293;SDS011;27037;52.010;4.446;2022-07-17T14:23:10;6.65;;;4.20;;
41293;SDS011;27037;52.010;4.446;2022-07-17T14:25:36;5.90;;;4.05;;
41293;SDS011;27037;52.010;4.446;2022-07-17T14:28:02;5.78;;;3.88;;
41293;SDS011;27037;52.010;4.446;2022-07-17T14:30:27;7.05;;;4.57;;
41293;SDS011;27037;52.010;4.446;2022-07-17T14:32:53;8.15;;;4.65;;
41293;SDS011;27037;52.010;4.446;2022-07-17T14:35:19;9.32;;;5.10;;
41293;SDS011;27037;52.010;4.446;2022-07-17T14:37:45;9.00;;;5.25;;
41293;SDS011;27037;52.010;4.446;2022-07-17T14:40:11;7.70;;;4.78;;
41293;SDS011;27037;52.010;4.446;2022-07-17T14:42:38;7.25;;;5.18;;
41293;SDS011;27037;52.010;4.446;2022-07-17T14:45:03;7.40;;;4.72;;
41293;SDS011;27037;52.010;4.446;2022-07-17T14:47:29;9.25;;;4.32;;
41293;SDS011;27037;52.010;4.446;2022-07-17T14:49:55;6.78;;;4.63;;
41293;SDS011;27037;52.010;4.446;2022-07-17T14:52:20;6.75;;;4.22;;
41293;SDS011;27037;52.010;4.446;2022-07-17T14:54:46;7.05;;;4.88;;
41293;SDS011;27037;52.010;4.446;2022-07-17T14:57:12;9.07;;;5.05;;
41293;SDS011;27037;52.010;4.446;2022-07-17T14:59:37;6.53;;;4.88;;
41293;SDS011;27037;52.010;4.446;2022-07-17T15:02:03;7.32;;;4.85;;
41293;SDS011;27037;52.010;4.446;2022-07-17T15:04:28;6.63;;;4.50;;